sensor_id;sensor_type;location;lat;lon;timestamp;pressure;altitude;pressure_sealevel;temperature
66180;BMP280;52986;44.028;20.466;2023-04-03T00:00:04;97617.44;;;7.72
66180;BMP280;52986;44.028;20.466;2023-04-03T00:02:30;97620.94;;;7.69
66180;BMP280;52986;44.028;20.466;2023-04-03T00:04:55;97612.63;;;7.67
66180;BMP280;52986;44.028;20.466;2023-04-03T00:07:21;97608.47;;;7.66
66180;BMP280;52986;44.028;20.466;2023-04-03T00:09:46;97609.97;;;7.67
66180;BMP280;52986;44.028;20.466;2023-04-03T00:12:11;97604.72;;;7.63
66180;BMP280;52986;44.028;20.466;2023-04-03T00:14:37;97607.00;;;7.65
66180;BMP280;52986;44.028;20.466;2023-04-03T00:17:02;97604.09;;;7.59
66180;BMP280;52986;44.028;20.466;2023-04-03T00:19:27;97598.84;;;7.56
66180;BMP280;52986;44.028;20.466;2023-04-03T00:21:53;97597.56;;;7.48
66180;BMP280;52986;44.028;20.466;2023-04-03T00:24:18;97596.16;;;7.43
66180;BMP280;52986;44.028;20.466;2023-04-03T00:26:44;97595.34;;;7.46
66180;BMP280;52986;44.028;20.466;2023-04-03T00:29:09;97592.97;;;7.48
66180;BMP280;52986;44.028;20.466;2023-04-03T00:31:35;97592.47;;;7.53
66180;BMP280;52986;44.028;20.466;2023-04-03T00:34:00;97598.84;;;7.56
66180;BMP280;52986;44.028;20.466;2023-04-03T00:36:26;97597.59;;;7.60
66180;BMP280;52986;44.028;20.466;2023-04-03T00:38:51;97607.00;;;7.65
66180;BMP280;52986;44.028;20.466;2023-04-03T00:41:17;97605.38;;;7.68
66180;BMP280;52986;44.028;20.466;2023-04-03T00:43:42;97603.91;;;7.67
66180;BMP280;52986;44.028;20.466;2023-04-03T00:46:08;97600.16;;;7.64
66180;BMP280;52986;44.028;20.466;2023-04-03T00:51:03;97604.84;;;7.60
66180;BMP280;52986;44.028;20.466;2023-04-03T00:53:34;97612.72;;;7.63
66180;BMP280;52986;44.028;20.466;2023-04-03T00:56:00;97621.56;;;7.60
66180;BMP280;52986;44.028;20.466;2023-04-03T00:58:34;97618.72;;;7.68
66180;BMP280;52986;44.028;20.466;2023-04-03T01:01:05;97624.19;;;7.77
66180;BMP280;52986;44.028;20.466;2023-04-03T01:03:32;97615.75;;;7.78
66180;BMP280;52986;44.028;20.466;2023-04-03T01:05:57;97618.84;;;7.77
66180;BMP280;52986;44.028;20.466;2023-04-03T01:08:23;97616.56;;;7.75
66180;BMP280;52986;44.028;20.466;2023-04-03T01:10:49;97620.34;;;7.78
66180;BMP280;52986;44.028;20.466;2023-04-03T01:13:21;97626.50;;;7.87
66180;BMP280;52986;44.028;20.466;2023-04-03T01:15:46;97627.47;;;7.93
66180;BMP280;52986;44.028;20.466;2023-04-03T01:18:12;97635.31;;;8.01
66180;BMP280;52986;44.028;20.466;2023-04-03T01:20:44;97631.97;;;8.09
66180;BMP280;52986;44.028;20.466;2023-04-03T01:23:21;97632.28;;;8.11
66180;BMP280;52986;44.028;20.466;2023-04-03T01:25:54;97627.59;;;8.15
66180;BMP280;52986;44.028;20.466;2023-04-03T01:33:40;97621.81;;;8.30
66180;BMP280;52986;44.028;20.466;2023-04-03T01:36:07;97622.69;;;8.27
66180;BMP280;52986;44.028;20.466;2023-04-03T01:38:32;97618.94;;;8.24
66180;BMP280;52986;44.028;20.466;2023-04-03T01:40:58;97626.94;;;8.24
66180;BMP280;52986;44.028;20.466;2023-04-03T01:43:23;97619.16;;;8.17
66180;BMP280;52986;44.028;20.466;2023-04-03T01:45:49;97617.97;;;8.18
66180;BMP280;52986;44.028;20.466;2023-04-03T01:48:15;97623.88;;;8.13
66180;BMP280;52986;44.028;20.466;2023-04-03T01:50:41;97628.34;;;8.16
66180;BMP280;52986;44.028;20.466;2023-04-03T01:53:07;97624.50;;;8.17
66180;BMP280;52986;44.028;20.466;2023-04-03T01:55:32;97621.44;;;8.18
66180;BMP280;52986;44.028;20.466;2023-04-03T01:57:57;97619.81;;;8.21
66180;BMP280;52986;44.028;20.466;2023-04-03T02:00:23;97625.47;;;8.23
66180;BMP280;52986;44.028;20.466;2023-04-03T02:02:48;97627.28;;;8.26
66180;BMP280;52986;44.028;20.466;2023-04-03T02:05:14;97624.16;;;8.28
66180;BMP280;52986;44.028;20.466;2023-04-03T02:07:39;97625.78;;;8.38
66180;BMP280;52986;44.028;20.466;2023-04-03T02:10:05;97622.16;;;8.44
66180;BMP280;52986;44.028;20.466;2023-04-03T02:12:30;97633.34;;;8.52
66180;BMP280;52986;44.028;20.466;2023-04-03T02:14:56;97629.69;;;8.59
66180;BMP280;52986;44.028;20.466;2023-04-03T02:17:21;97630.25;;;8.54
66180;BMP280;52986;44.028;20.466;2023-04-03T02:19:47;97638.66;;;8.65
66180;BMP280;52986;44.028;20.466;2023-04-03T02:22:12;97637.78;;;8.68
66180;BMP280;52986;44.028;20.466;2023-04-03T02:24:37;97633.69;;;8.76
66180;BMP280;52986;44.028;20.466;2023-04-03T02:27:04;97635.84;;;8.81
66180;BMP280;52986;44.028;20.466;2023-04-03T02:29:30;97636.66;;;8.91
66180;BMP280;52986;44.028;20.466;2023-04-03T02:31:55;97631.09;;;8.98
66180;BMP280;52986;44.028;20.466;2023-04-03T02:34:21;97634.25;;;9.05
66180;BMP280;52986;44.028;20.466;2023-04-03T02:36:46;97638.81;;;9.18
66180;BMP280;52986;44.028;20.466;2023-04-03T02:39:12;97623.47;;;9.31
66180;BMP280;52986;44.028;20.466;2023-04-03T02:41:37;97642.91;;;9.53
66180;BMP280;52986;44.028;20.466;2023-04-03T02:44:04;97637.78;;;9.68
66180;BMP280;52986;44.028;20.466;2023-04-03T02:46:30;97637.69;;;9.81
66180;BMP280;52986;44.028;20.466;2023-04-03T02:48:55;97633.13;;;9.90
66180;BMP280;52986;44.028;20.466;2023-04-03T02:51:21;97627.38;;;10.01
66180;BMP280;52986;44.028;20.466;2023-04-03T02:53:46;97637.22;;;10.13
66180;BMP280;52986;44.028;20.466;2023-04-03T02:56:11;97629.19;;;10.13
66180;BMP280;52986;44.028;20.466;2023-04-03T02:58:37;97635.44;;;10.10
66180;BMP280;52986;44.028;20.466;2023-04-03T03:01:02;97645.84;;;10.08
66180;BMP280;52986;44.028;20.466;2023-04-03T03:03:28;97635.91;;;10.18
66180;BMP280;52986;44.028;20.466;2023-04-03T03:06:08;97634.28;;;10.20
66180;BMP280;52986;44.028;20.466;2023-04-03T03:08:34;97631.88;;;10.13
66180;BMP280;52986;44.028;20.466;2023-04-03T03:11:00;97633.09;;;10.12
66180;BMP280;52986;44.028;20.466;2023-04-03T03:13:26;97639.91;;;10.13
66180;BMP280;52986;44.028;20.466;2023-04-03T03:15:52;97643.75;;;10.03
66180;BMP280;52986;44.028;20.466;2023-04-03T03:18:17;97636.44;;;9.94
66180;BMP280;52986;44.028;20.466;2023-04-03T03:20:43;97644.41;;;9.85
66180;BMP280;52986;44.028;20.466;2023-04-03T03:23:08;97653.69;;;9.71
66180;BMP280;52986;44.028;20.466;2023-04-03T03:25:38;97657.69;;;9.67
66180;BMP280;52986;44.028;20.466;2023-04-03T03:28:03;97653.53;;;9.66
66180;BMP280;52986;44.028;20.466;2023-04-03T03:30:29;97667.84;;;9.50
66180;BMP280;52986;44.028;20.466;2023-04-03T03:32:54;97671.13;;;9.32
66180;BMP280;52986;44.028;20.466;2023-04-03T03:35:20;97679.72;;;9.27
66180;BMP280;52986;44.028;20.466;2023-04-03T03:37:45;97675.91;;;9.16
66180;BMP280;52986;44.028;20.466;2023-04-03T03:40:11;97681.59;;;9.05
66180;BMP280;52986;44.028;20.466;2023-04-03T03:42:38;97683.81;;;9.06
66180;BMP280;52986;44.028;20.466;2023-04-03T03:45:04;97681.84;;;8.98
66180;BMP280;52986;44.028;20.466;2023-04-03T03:47:29;97687.81;;;8.89
66180;BMP280;52986;44.028;20.466;2023-04-03T03:49:55;97692.66;;;8.94
66180;BMP280;52986;44.028;20.466;2023-04-03T03:52:20;97690.63;;;8.86
66180;BMP280;52986;44.028;20.466;2023-04-03T03:54:46;97693.75;;;8.71
66180;BMP280;52986;44.028;20.466;2023-04-03T03:57:11;97690.84;;;8.66
66180;BMP280;52986;44.028;20.466;2023-04-03T03:59:36;97685.13;;;8.55
66180;BMP280;52986;44.028;20.466;2023-04-03T04:02:02;97690.78;;;8.44
66180;BMP280;52986;44.028;20.466;2023-04-03T04:04:27;97694.22;;;8.44
66180;BMP280;52986;44.028;20.466;2023-04-03T04:06:52;97698.56;;;8.38
66180;BMP280;52986;44.028;20.466;2023-04-03T04:09:18;97700.59;;;8.34
66180;BMP280;52986;44.028;20.466;2023-04-03T04:11:43;97701.03;;;8.33
66180;BMP280;52986;44.028;20.466;2023-04-03T04:14:09;97709.03;;;8.33
66180;BMP280;52986;44.028;20.466;2023-04-03T04:16:35;97706.13;;;8.27
66180;BMP280;52986;44.028;20.466;2023-04-03T04:19:00;97703.69;;;8.20
66180;BMP280;52986;44.028;20.466;2023-04-03T04:21:26;97700.78;;;8.14
66180;BMP280;52986;44.028;20.466;2023-04-03T04:23:51;97687.25;;;8.09
66180;BMP280;52986;44.028;20.466;2023-04-03T04:26:17;97703.75;;;8.04
66180;BMP280;52986;44.028;20.466;2023-04-03T04:28:42;97707.09;;;8.08
66180;BMP280;52986;44.028;20.466;2023-04-03T04:31:08;97703.13;;;8.00
66180;BMP280;52986;44.028;20.466;2023-04-03T04:33:33;97707.91;;;8.05
66180;BMP280;52986;44.028;20.466;2023-04-03T04:35:58;97716.34;;;7.90
66180;BMP280;52986;44.028;20.466;2023-04-03T04:38:24;97726.69;;;7.88
66180;BMP280;52986;44.028;20.466;2023-04-03T04:40:50;97726.25;;;7.90
66180;BMP280;52986;44.028;20.466;2023-04-03T04:43:16;97736.69;;;7.84
66180;BMP280;52986;44.028;20.466;2023-04-03T04:45:41;97739.63;;;7.74
66180;BMP280;52986;44.028;20.466;2023-04-03T04:48:07;97734.41;;;7.70
66180;BMP280;52986;44.028;20.466;2023-04-03T04:50:32;97743.25;;;7.67
66180;BMP280;52986;44.028;20.466;2023-04-03T04:52:58;97757.44;;;7.64
66180;BMP280;52986;44.028;20.466;2023-04-03T04:55:23;97755.56;;;7.61
66180;BMP280;52986;44.028;20.466;2023-04-03T04:57:49;97753.00;;;7.57
66180;BMP280;52986;44.028;20.466;2023-04-03T05:00:15;97753.75;;;7.58
66180;BMP280;52986;44.028;20.466;2023-04-03T05:02:40;97749.59;;;7.57
66180;BMP280;52986;44.028;20.466;2023-04-03T05:05:06;97754.09;;;7.60
66180;BMP280;52986;44.028;20.466;2023-04-03T05:07:32;97757.75;;;7.66
66180;BMP280;52986;44.028;20.466;2023-04-03T05:09:57;97757.44;;;7.64
66180;BMP280;52986;44.028;20.466;2023-04-03T05:12:22;97747.63;;;7.74
66180;BMP280;52986;44.028;20.466;2023-04-03T05:14:48;97753.91;;;7.67
66180;BMP280;52986;44.028;20.466;2023-04-03T05:17:13;97747.81;;;7.67
66180;BMP280;52986;44.028;20.466;2023-04-03T05:19:39;97750.06;;;7.68
66180;BMP280;52986;44.028;20.466;2023-04-03T05:22:04;97758.25;;;7.61
66180;BMP280;52986;44.028;20.466;2023-04-03T05:24:30;97767.50;;;7.56
66180;BMP280;52986;44.028;20.466;2023-04-03T05:26:55;97773.25;;;7.55
66180;BMP280;52986;44.028;20.466;2023-04-03T05:29:21;97770.28;;;7.53
66180;BMP280;52986;44.028;20.466;2023-04-03T05:31:49;97774.84;;;7.52
66180;BMP280;52986;44.028;20.466;2023-04-03T05:34:15;97774.91;;;7.49
66180;BMP280;52986;44.028;20.466;2023-04-03T05:36:40;97778.59;;;7.55
66180;BMP280;52986;44.028;20.466;2023-04-03T05:39:07;97780.84;;;7.56
66180;BMP280;52986;44.028;20.466;2023-04-03T05:41:32;97783.34;;;7.47
66180;BMP280;52986;44.028;20.466;2023-04-03T05:43:58;97779.94;;;7.47
66180;BMP280;52986;44.028;20.466;2023-04-03T05:46:23;97786.75;;;7.48
66180;BMP280;52986;44.028;20.466;2023-04-03T05:48:49;97782.91;;;7.49
66180;BMP280;52986;44.028;20.466;2023-04-03T05:51:16;97782.16;;;7.48
66180;BMP280;52986;44.028;20.466;2023-04-03T05:53:43;97787.06;;;7.50
66180;BMP280;52986;44.028;20.466;2023-04-03T05:56:10;97793.63;;;7.61
66180;BMP280;52986;44.028;20.466;2023-04-03T05:58:35;97796.97;;;7.66
66180;BMP280;52986;44.028;20.466;2023-04-03T06:01:00;97802.53;;;7.71
66180;BMP280;52986;44.028;20.466;2023-04-03T06:03:26;97807.97;;;7.68
66180;BMP280;52986;44.028;20.466;2023-04-03T06:05:52;97819.59;;;7.74
66180;BMP280;52986;44.028;20.466;2023-04-03T06:08:17;97817.63;;;7.61
66180;BMP280;52986;44.028;20.466;2023-04-03T06:10:42;97813.22;;;7.55
66180;BMP280;52986;44.028;20.466;2023-04-03T06:13:08;97821.56;;;7.57
66180;BMP280;52986;44.028;20.466;2023-04-03T06:15:33;97815.22;;;7.51
66180;BMP280;52986;44.028;20.466;2023-04-03T06:17:59;97820.56;;;7.51
66180;BMP280;52986;44.028;20.466;2023-04-03T06:20:25;97819.41;;;7.52
66180;BMP280;52986;44.028;20.466;2023-04-03T06:22:50;97813.84;;;7.46
66180;BMP280;52986;44.028;20.466;2023-04-03T06:25:16;97828.22;;;7.49
66180;BMP280;52986;44.028;20.466;2023-04-03T06:27:44;97825.75;;;7.42
66180;BMP280;52986;44.028;20.466;2023-04-03T06:30:10;97832.28;;;7.37
66180;BMP280;52986;44.028;20.466;2023-04-03T06:32:36;97830.38;;;7.38
66180;BMP280;52986;44.028;20.466;2023-04-03T06:35:01;97826.81;;;7.28
66180;BMP280;52986;44.028;20.466;2023-04-03T06:37:27;97831.31;;;7.31
66180;BMP280;52986;44.028;20.466;2023-04-03T06:39:54;97825.84;;;7.22
66180;BMP280;52986;44.028;20.466;2023-04-03T06:42:20;97834.13;;;7.24
66180;BMP280;52986;44.028;20.466;2023-04-03T06:44:45;97833.28;;;7.27
66180;BMP280;52986;44.028;20.466;2023-04-03T06:47:15;97824.06;;;7.31
66180;BMP280;52986;44.028;20.466;2023-04-03T06:49:41;97831.63;;;7.33
66180;BMP280;52986;44.028;20.466;2023-04-03T06:52:07;97831.78;;;7.26
66180;BMP280;52986;44.028;20.466;2023-04-03T06:54:32;97830.22;;;7.28
66180;BMP280;52986;44.028;20.466;2023-04-03T06:56:58;97835.19;;;7.26
66180;BMP280;52986;44.028;20.466;2023-04-03T06:59:24;97831.41;;;7.27
66180;BMP280;52986;44.028;20.466;2023-04-03T07:01:49;97831.03;;;7.25
66180;BMP280;52986;44.028;20.466;2023-04-03T07:04:15;97838.41;;;7.21
66180;BMP280;52986;44.028;20.466;2023-04-03T07:06:41;97840.72;;;7.36
66180;BMP280;52986;44.028;20.466;2023-04-03T07:09:08;97842.88;;;7.41
66180;BMP280;52986;44.028;20.466;2023-04-03T07:11:34;97842.16;;;7.40
66180;BMP280;52986;44.028;20.466;2023-04-03T07:13:59;97843.69;;;7.38
66180;BMP280;52986;44.028;20.466;2023-04-03T07:16:25;97846.78;;;7.36
66180;BMP280;52986;44.028;20.466;2023-04-03T07:18:50;97857.03;;;7.38
66180;BMP280;52986;44.028;20.466;2023-04-03T07:21:16;97856.03;;;7.31
66180;BMP280;52986;44.028;20.466;2023-04-03T07:23:41;97859.88;;;7.30
66180;BMP280;52986;44.028;20.466;2023-04-03T07:26:07;97871.69;;;7.29
66180;BMP280;52986;44.028;20.466;2023-04-03T07:28:33;97876.69;;;7.27
66180;BMP280;52986;44.028;20.466;2023-04-03T07:33:25;97875.59;;;7.25
66180;BMP280;52986;44.028;20.466;2023-04-03T07:35:51;97876.09;;;7.20
66180;BMP280;52986;44.028;20.466;2023-04-03T07:38:17;97874.09;;;7.24
66180;BMP280;52986;44.028;20.466;2023-04-03T07:40:47;97878.34;;;7.21
66180;BMP280;52986;44.028;20.466;2023-04-03T07:43:12;97887.25;;;7.31
66180;BMP280;52986;44.028;20.466;2023-04-03T07:45:38;97884.16;;;7.16
66180;BMP280;52986;44.028;20.466;2023-04-03T07:48:04;97882.72;;;7.12
66180;BMP280;52986;44.028;20.466;2023-04-03T07:50:29;97880.81;;;7.12
66180;BMP280;52986;44.028;20.466;2023-04-03T07:52:56;97889.25;;;7.11
66180;BMP280;52986;44.028;20.466;2023-04-03T07:55:25;97878.22;;;7.09
66180;BMP280;52986;44.028;20.466;2023-04-03T07:58:18;97885.47;;;7.08
66180;BMP280;52986;44.028;20.466;2023-04-03T08:00:44;97887.34;;;6.91
66180;BMP280;52986;44.028;20.466;2023-04-03T08:03:11;97889.75;;;6.86
66180;BMP280;52986;44.028;20.466;2023-04-03T08:05:45;97885.56;;;6.85
66180;BMP280;52986;44.028;20.466;2023-04-03T08:08:13;97881.81;;;6.82
66180;BMP280;52986;44.028;20.466;2023-04-03T08:10:38;97880.53;;;6.70
66180;BMP280;52986;44.028;20.466;2023-04-03T08:13:04;97879.84;;;6.66
66180;BMP280;52986;44.028;20.466;2023-04-03T08:15:30;97881.97;;;6.75
66180;BMP280;52986;44.028;20.466;2023-04-03T08:17:56;97883.78;;;6.78
66180;BMP280;52986;44.028;20.466;2023-04-03T08:20:22;97887.69;;;6.73
66180;BMP280;52986;44.028;20.466;2023-04-03T08:22:47;97894.84;;;6.77
66180;BMP280;52986;44.028;20.466;2023-04-03T08:25:13;97895.69;;;6.73
66180;BMP280;52986;44.028;20.466;2023-04-03T08:27:38;97892.47;;;6.62
66180;BMP280;52986;44.028;20.466;2023-04-03T08:30:04;97892.19;;;6.77
66180;BMP280;52986;44.028;20.466;2023-04-03T08:32:30;97890.69;;;6.76
66180;BMP280;52986;44.028;20.466;2023-04-03T08:34:55;97887.78;;;6.70
66180;BMP280;52986;44.028;20.466;2023-04-03T08:37:21;97904.81;;;6.72
66180;BMP280;52986;44.028;20.466;2023-04-03T08:39:46;97897.59;;;6.73
66180;BMP280;52986;44.028;20.466;2023-04-03T08:48:04;97906.00;;;6.71
66180;BMP280;52986;44.028;20.466;2023-04-03T08:50:38;97900.50;;;6.79
66180;BMP280;52986;44.028;20.466;2023-04-03T08:53:05;97896.34;;;6.78
66180;BMP280;52986;44.028;20.466;2023-04-03T08:55:41;97905.09;;;6.78
66180;BMP280;52986;44.028;20.466;2023-04-03T08:58:15;97903.78;;;6.66
66180;BMP280;52986;44.028;20.466;2023-04-03T09:00:50;97900.75;;;6.68
66180;BMP280;52986;44.028;20.466;2023-04-03T09:03:18;97897.25;;;6.71
66180;BMP280;52986;44.028;20.466;2023-04-03T09:05:55;97904.34;;;6.78
66180;BMP280;52986;44.028;20.466;2023-04-03T09:08:36;97890.66;;;6.79
66180;BMP280;52986;44.028;20.466;2023-04-03T09:11:24;97890.78;;;6.72
66180;BMP280;52986;44.028;20.466;2023-04-03T09:13:59;97890.34;;;6.73
66180;BMP280;52986;44.028;20.466;2023-04-03T09:22:16;97883.91;;;6.91
66180;BMP280;52986;44.028;20.466;2023-04-03T09:24:45;97881.13;;;6.98
66180;BMP280;52986;44.028;20.466;2023-04-03T09:27:12;97869.97;;;7.03
66180;BMP280;52986;44.028;20.466;2023-04-03T09:29:41;97869.91;;;7.07
66180;BMP280;52986;44.028;20.466;2023-04-03T09:32:32;97863.78;;;7.10
66180;BMP280;52986;44.028;20.466;2023-04-03T09:35:04;97863.69;;;7.29
66180;BMP280;52986;44.028;20.466;2023-04-03T09:37:48;97857.44;;;7.36
66180;BMP280;52986;44.028;20.466;2023-04-03T09:42:53;97847.47;;;7.40
66180;BMP280;52986;44.028;20.466;2023-04-03T09:45:35;97844.13;;;7.36
66180;BMP280;52986;44.028;20.466;2023-04-03T09:51:00;97839.56;;;7.53
66180;BMP280;52986;44.028;20.466;2023-04-03T09:53:39;97844.38;;;7.58
66180;BMP280;52986;44.028;20.466;2023-04-03T10:01:36;97836.28;;;7.61
66180;BMP280;52986;44.028;20.466;2023-04-03T10:04:18;97836.72;;;7.76
66180;BMP280;52986;44.028;20.466;2023-04-03T10:09:44;97820.50;;;7.83
66180;BMP280;52986;44.028;20.466;2023-04-03T10:12:20;97816.69;;;7.84
66180;BMP280;52986;44.028;20.466;2023-04-03T10:20:04;97805.63;;;7.99
66180;BMP280;52986;44.028;20.466;2023-04-03T10:22:58;97815.31;;;7.92
66180;BMP280;52986;44.028;20.466;2023-04-03T10:28:10;97797.81;;;7.91
66180;BMP280;52986;44.028;20.466;2023-04-03T10:31:07;97801.06;;;7.99
66180;BMP280;52986;44.028;20.466;2023-04-03T10:36:33;97807.50;;;7.85
66180;BMP280;52986;44.028;20.466;2023-04-03T10:42:02;97800.19;;;7.73
66180;BMP280;52986;44.028;20.466;2023-04-03T10:47:21;97797.56;;;7.57
66180;BMP280;52986;44.028;20.466;2023-04-03T10:57:39;97809.56;;;7.32
66180;BMP280;52986;44.028;20.466;2023-04-03T11:00:20;97815.22;;;7.35
66180;BMP280;52986;44.028;20.466;2023-04-03T11:03:00;97817.19;;;7.34
66180;BMP280;52986;44.028;20.466;2023-04-03T11:05:40;97816.44;;;7.34
66180;BMP280;52986;44.028;20.466;2023-04-03T11:08:33;97821.06;;;7.29
66180;BMP280;52986;44.028;20.466;2023-04-03T11:11:06;97814.31;;;7.25
66180;BMP280;52986;44.028;20.466;2023-04-03T11:13:52;97812.41;;;7.25
66180;BMP280;52986;44.028;20.466;2023-04-03T11:16:30;97817.81;;;7.38
66180;BMP280;52986;44.028;20.466;2023-04-03T11:19:02;97821.47;;;7.44
66180;BMP280;52986;44.028;20.466;2023-04-03T11:21:46;97815.88;;;7.39
66180;BMP280;52986;44.028;20.466;2023-04-03T11:24:20;97818.56;;;7.39
66180;BMP280;52986;44.028;20.466;2023-04-03T11:26:48;97812.47;;;7.38
66180;BMP280;52986;44.028;20.466;2023-04-03T11:29:20;97824.72;;;7.36
66180;BMP280;52986;44.028;20.466;2023-04-03T11:34:52;97819.31;;;7.39
66180;BMP280;52986;44.028;20.466;2023-04-03T11:37:38;97817.75;;;7.42
66180;BMP280;52986;44.028;20.466;2023-04-03T11:40:08;97808.75;;;7.36
66180;BMP280;52986;44.028;20.466;2023-04-03T11:42:49;97814.56;;;7.30
66180;BMP280;52986;44.028;20.466;2023-04-03T11:50:46;97815.16;;;7.38
66180;BMP280;52986;44.028;20.466;2023-04-03T11:58:22;97807.91;;;7.39
66180;BMP280;52986;44.028;20.466;2023-04-03T12:00:58;97793.00;;;7.41
66180;BMP280;52986;44.028;20.466;2023-04-03T12:11:22;97770.91;;;7.57
66180;BMP280;52986;44.028;20.466;2023-04-03T12:16:33;97769.00;;;7.57
66180;BMP280;52986;44.028;20.466;2023-04-03T12:19:30;97767.94;;;7.55
66180;BMP280;52986;44.028;20.466;2023-04-03T12:24:29;97759.50;;;7.56
66180;BMP280;52986;44.028;20.466;2023-04-03T12:29:24;97753.75;;;7.58
66180;BMP280;52986;44.028;20.466;2023-04-03T12:48:58;97735.28;;;7.51
66180;BMP280;52986;44.028;20.466;2023-04-03T12:51:44;97730.28;;;7.53
66180;BMP280;52986;44.028;20.466;2023-04-03T12:54:35;97724.34;;;7.61
66180;BMP280;52986;44.028;20.466;2023-04-03T12:57:34;97720.28;;;7.57
66180;BMP280;52986;44.028;20.466;2023-04-03T13:00:00;97719.34;;;7.63
66180;BMP280;52986;44.028;20.466;2023-04-03T13:02:44;97718.09;;;7.68
66180;BMP280;52986;44.028;20.466;2023-04-03T13:05:17;97708.91;;;7.69
66180;BMP280;52986;44.028;20.466;2023-04-03T13:07:44;97706.25;;;7.69
66180;BMP280;52986;44.028;20.466;2023-04-03T13:10:17;97703.16;;;7.71
66180;BMP280;52986;44.028;20.466;2023-04-03T13:13:09;97700.75;;;7.76
66180;BMP280;52986;44.028;20.466;2023-04-03T13:15:44;97695.47;;;7.73
66180;BMP280;52986;44.028;20.466;2023-04-03T13:18:34;97692.75;;;7.76
66180;BMP280;52986;44.028;20.466;2023-04-03T13:21:15;97688.91;;;7.77
66180;BMP280;52986;44.028;20.466;2023-04-03T13:23:45;97679.31;;;7.80
66180;BMP280;52986;44.028;20.466;2023-04-03T13:26:11;97672.06;;;7.80
66180;BMP280;52986;44.028;20.466;2023-04-03T13:28:39;97666.94;;;7.86
66180;BMP280;52986;44.028;20.466;2023-04-03T13:33:52;97664.06;;;7.93
66180;BMP280;52986;44.028;20.466;2023-04-03T13:36:21;97660.25;;;8.07
66180;BMP280;52986;44.028;20.466;2023-04-03T13:38:59;97655.97;;;7.97
66180;BMP280;52986;44.028;20.466;2023-04-03T13:41:36;97657.47;;;7.98
66180;BMP280;52986;44.028;20.466;2023-04-03T13:44:35;97660.34;;;7.90
66180;BMP280;52986;44.028;20.466;2023-04-03T13:47:16;97648.47;;;7.91
66180;BMP280;52986;44.028;20.466;2023-04-03T13:49:46;97650.22;;;7.98
66180;BMP280;52986;44.028;20.466;2023-04-03T13:52:49;97653.38;;;7.93
66180;BMP280;52986;44.028;20.466;2023-04-03T13:55:31;97635.81;;;7.96
66180;BMP280;52986;44.028;20.466;2023-04-03T14:00:53;97640.22;;;8.02
66180;BMP280;52986;44.028;20.466;2023-04-03T14:05:50;97658.84;;;7.89
66180;BMP280;52986;44.028;20.466;2023-04-03T14:08:17;97664.19;;;7.89
66180;BMP280;52986;44.028;20.466;2023-04-03T14:10:46;97663.09;;;7.87
66180;BMP280;52986;44.028;20.466;2023-04-03T14:13:17;97668.09;;;7.85
66180;BMP280;52986;44.028;20.466;2023-04-03T14:15:44;97675.22;;;7.75
66180;BMP280;52986;44.028;20.466;2023-04-03T14:18:15;97666.84;;;7.77
66180;BMP280;52986;44.028;20.466;2023-04-03T14:20:40;97672.16;;;7.77
66180;BMP280;52986;44.028;20.466;2023-04-03T14:23:06;97666.28;;;7.82
66180;BMP280;52986;44.028;20.466;2023-04-03T14:25:32;97664.91;;;7.77
66180;BMP280;52986;44.028;20.466;2023-04-03T14:27:58;97672.25;;;7.73
66180;BMP280;52986;44.028;20.466;2023-04-03T14:30:34;97656.25;;;7.73
66180;BMP280;52986;44.028;20.466;2023-04-03T14:33:01;97646.88;;;7.69
66180;BMP280;52986;44.028;20.466;2023-04-03T14:35:26;97635.00;;;7.70
66180;BMP280;52986;44.028;20.466;2023-04-03T14:37:52;97623.19;;;7.71
66180;BMP280;52986;44.028;20.466;2023-04-03T14:40:21;97612.19;;;7.81
66180;BMP280;52986;44.028;20.466;2023-04-03T14:42:47;97611.69;;;7.86
66180;BMP280;52986;44.028;20.466;2023-04-03T14:45:15;97616.94;;;7.77
66180;BMP280;52986;44.028;20.466;2023-04-03T14:48:09;97615.75;;;7.78
66180;BMP280;52986;44.028;20.466;2023-04-03T14:50:35;97632.78;;;7.81
66180;BMP280;52986;44.028;20.466;2023-04-03T14:53:01;97638.25;;;7.77
66180;BMP280;52986;44.028;20.466;2023-04-03T14:55:26;97642.91;;;7.73
66180;BMP280;52986;44.028;20.466;2023-04-03T14:57:53;97643.00;;;7.70
66180;BMP280;52986;44.028;20.466;2023-04-03T15:00:20;97646.53;;;7.67
66180;BMP280;52986;44.028;20.466;2023-04-03T15:02:46;97648.13;;;7.64
66180;BMP280;52986;44.028;20.466;2023-04-03T15:05:13;97644.38;;;7.61
66180;BMP280;52986;44.028;20.466;2023-04-03T15:07:52;97643.63;;;7.61
66180;BMP280;52986;44.028;20.466;2023-04-03T15:10:26;97628.69;;;7.51
66180;BMP280;52986;44.028;20.466;2023-04-03T15:12:52;97624.75;;;7.55
66180;BMP280;52986;44.028;20.466;2023-04-03T15:15:19;97621.03;;;7.53
66180;BMP280;52986;44.028;20.466;2023-04-03T15:17:46;97622.97;;;7.65
66180;BMP280;52986;44.028;20.466;2023-04-03T15:20:15;97627.88;;;7.67
66180;BMP280;52986;44.028;20.466;2023-04-03T15:22:41;97612.72;;;7.63
66180;BMP280;52986;44.028;20.466;2023-04-03T15:25:07;97618.91;;;7.60
66180;BMP280;52986;44.028;20.466;2023-04-03T15:27:33;97613.56;;;7.60
66180;BMP280;52986;44.028;20.466;2023-04-03T15:29:59;97614.63;;;7.63
66180;BMP280;52986;44.028;20.466;2023-04-03T15:32:25;97607.59;;;7.56
66180;BMP280;52986;44.028;20.466;2023-04-03T15:34:50;97615.28;;;7.54
66180;BMP280;52986;44.028;20.466;2023-04-03T15:37:15;97622.53;;;7.54
66180;BMP280;52986;44.028;20.466;2023-04-03T15:39:41;97620.94;;;7.56
66180;BMP280;52986;44.028;20.466;2023-04-03T15:42:06;97608.03;;;7.55
66180;BMP280;52986;44.028;20.466;2023-04-03T15:44:35;97614.59;;;7.50
66180;BMP280;52986;44.028;20.466;2023-04-03T15:47:00;97617.19;;;7.54
66180;BMP280;52986;44.028;20.466;2023-04-03T15:49:27;97617.84;;;7.58
66180;BMP280;52986;44.028;20.466;2023-04-03T15:51:52;97616.34;;;7.57
66180;BMP280;52986;44.028;20.466;2023-04-03T15:54:18;97619.00;;;7.57
66180;BMP280;52986;44.028;20.466;2023-04-03T15:56:43;97620.28;;;7.52
66180;BMP280;52986;44.028;20.466;2023-04-03T15:59:09;97616.03;;;7.55
66180;BMP280;52986;44.028;20.466;2023-04-03T16:01:34;97608.78;;;7.55
66180;BMP280;52986;44.028;20.466;2023-04-03T16:04:01;97601.22;;;7.54
66180;BMP280;52986;44.028;20.466;2023-04-03T16:06:26;97598.97;;;7.52
66180;BMP280;52986;44.028;20.466;2023-04-03T16:08:54;97589.38;;;7.55
66180;BMP280;52986;44.028;20.466;2023-04-03T16:11:26;97588.19;;;7.56